createdAt,value
2018-03-31T00:00:21.424Z,23.17
2018-03-31T00:02:48.508Z,24.03
2018-03-31T00:05:15.510Z,23.60
2018-03-31T00:07:43.277Z,23.83
2018-03-31T00:10:11.016Z,21.87
2018-03-31T00:12:38.074Z,21.53
2018-03-31T00:15:05.829Z,23.83
2018-03-31T00:17:33.309Z,24.43
2018-03-31T00:20:00.245Z,24.97
2018-03-31T00:22:28.010Z,25.33
2018-03-31T00:24:55.052Z,24.37
2018-03-31T00:27:22.816Z,24.63
2018-03-31T00:29:49.971Z,26.37
2018-03-31T00:32:16.952Z,24.07
2018-03-31T00:34:43.948Z,24.40
2018-03-31T00:37:10.916Z,24.23
2018-03-31T00:39:38.663Z,25.03
2018-03-31T00:42:05.649Z,22.50
2018-03-31T00:44:32.715Z,24.60
2018-03-31T00:46:59.841Z,25.60
2018-03-31T00:49:27.589Z,23.57
2018-03-31T00:51:55.447Z,23.60
2018-03-31T00:54:22.438Z,22.73
2018-03-31T00:56:49.447Z,21.80
2018-03-31T00:59:17.228Z,22.37
2018-03-31T01:01:44.979Z,19.93
2018-03-31T01:04:12.733Z,18.97
2018-03-31T01:06:39.744Z,18.93
2018-03-31T01:09:06.840Z,19.23
2018-03-31T01:11:34.613Z,19.60
2018-03-31T01:14:02.355Z,19.40
2018-03-31T01:16:29.356Z,17.87
2018-03-31T01:18:56.320Z,17.57
2018-03-31T01:21:24.122Z,17.23
2018-03-31T01:23:51.876Z,18.43
2018-03-31T01:26:18.867Z,18.30
2018-03-31T01:28:45.833Z,19.27
2018-03-31T01:31:12.845Z,20.30
2018-03-31T01:33:39.954Z,19.67
2018-03-31T01:36:06.931Z,20.97
2018-03-31T01:38:34.707Z,18.40
2018-03-31T01:41:01.701Z,19.73
2018-03-31T01:43:28.691Z,19.90
2018-03-31T01:45:56.465Z,20.17
2018-03-31T01:48:24.313Z,20.73
2018-03-31T01:50:52.092Z,20.90
2018-03-31T01:53:19.834Z,19.77
2018-03-31T01:55:46.806Z,20.63
2018-03-31T01:58:14.615Z,20.80
2018-03-31T02:00:41.615Z,20.63
2018-03-31T02:03:09.419Z,21.13
2018-03-31T02:05:36.426Z,21.27
2018-03-31T02:08:03.427Z,21.83
2018-03-31T02:10:31.393Z,21.83
2018-03-31T02:12:58.404Z,21.90
2018-03-31T02:15:25.497Z,20.70
2018-03-31T02:17:52.471Z,21.13
2018-03-31T02:20:19.452Z,21.07
2018-03-31T02:22:46.425Z,21.70
2018-03-31T02:25:13.446Z,20.73
2018-03-31T02:27:40.426Z,19.23
2018-03-31T02:30:07.433Z,19.87
2018-03-31T02:32:34.421Z,20.07
2018-03-31T02:35:01.460Z,20.73
2018-03-31T02:37:29.224Z,21.90
2018-03-31T02:39:56.221Z,19.83
2018-03-31T02:42:23.974Z,22.63
2018-03-31T02:44:51.767Z,20.73
2018-03-31T02:47:18.763Z,22.13
2018-03-31T02:49:45.783Z,21.00
2018-03-31T02:52:12.779Z,19.70
2018-03-31T02:54:39.891Z,20.83
2018-03-31T02:57:06.869Z,22.03
2018-03-31T02:59:33.860Z,23.03
2018-03-31T03:02:00.865Z,23.30
2018-03-31T03:04:27.948Z,24.13
2018-03-31T03:06:54.932Z,23.53
2018-03-31T03:09:21.928Z,24.00
2018-03-31T03:11:48.928Z,23.10
2018-03-31T03:14:15.932Z,23.10
2018-03-31T03:16:43.412Z,23.90
2018-03-31T03:19:10.378Z,23.27
2018-03-31T03:21:37.368Z,25.20
2018-03-31T03:24:05.133Z,23.20
2018-03-31T03:26:32.884Z,24.00
2018-03-31T03:29:00.615Z,25.63
2018-03-31T03:31:27.623Z,23.77
2018-03-31T03:33:54.607Z,23.57
2018-03-31T03:36:21.602Z,23.17
2018-03-31T03:38:49.363Z,23.00
2018-03-31T03:41:17.106Z,23.30
2018-03-31T03:43:44.097Z,22.93
2018-03-31T03:46:11.083Z,23.57
2018-03-31T03:48:38.092Z,23.03
2018-03-31T03:51:05.094Z,23.60
2018-03-31T03:53:32.076Z,22.93
2018-03-31T03:55:59.083Z,23.27
2018-03-31T03:58:26.162Z,21.40
2018-03-31T04:00:53.894Z,22.27
2018-03-31T04:03:20.891Z,22.50
2018-03-31T04:05:48.019Z,21.80
2018-03-31T04:08:15.795Z,22.37
2018-03-31T04:10:42.821Z,22.33
2018-03-31T04:13:09.796Z,22.97
2018-03-31T04:15:36.823Z,23.13
2018-03-31T04:18:04.602Z,22.83
2018-03-31T04:20:32.357Z,22.60
2018-03-31T04:23:00.146Z,21.70
2018-03-31T04:25:27.171Z,22.63
2018-03-31T04:27:54.969Z,22.23
2018-03-31T04:30:21.960Z,22.97
2018-03-31T04:32:49.074Z,23.40
2018-03-31T04:35:16.066Z,23.63
2018-03-31T04:37:43.836Z,24.60
2018-03-31T04:40:11.590Z,24.30
2018-03-31T04:42:39.386Z,23.43
2018-03-31T04:45:07.151Z,23.93
2018-03-31T04:47:34.149Z,23.60
2018-03-31T04:50:01.131Z,24.43
2018-03-31T04:52:28.921Z,24.77
2018-03-31T04:54:55.963Z,24.53
2018-03-31T04:57:22.926Z,26.87
2018-03-31T04:59:49.925Z,24.90
2018-03-31T05:02:17.659Z,25.90
2018-03-31T05:04:44.645Z,26.93
2018-03-31T05:07:12.423Z,26.70
2018-03-31T05:09:39.422Z,27.53
2018-03-31T05:12:06.411Z,27.53
2018-03-31T05:14:34.144Z,29.57
2018-03-31T05:17:01.663Z,27.87
2018-03-31T05:19:28.631Z,29.10
2018-03-31T05:21:55.653Z,29.87
2018-03-31T05:24:22.673Z,29.43
2018-03-31T05:26:50.436Z,28.83
2018-03-31T05:29:18.177Z,29.00
2018-03-31T05:31:45.179Z,27.90
2018-03-31T05:34:12.201Z,27.73
2018-03-31T05:36:39.227Z,28.33
2018-03-31T05:39:06.196Z,27.17
2018-03-31T05:41:33.264Z,27.43
2018-03-31T05:44:00.267Z,27.50
2018-03-31T05:46:28.027Z,27.33
2018-03-31T05:48:55.081Z,26.90
2018-03-31T05:51:22.069Z,27.40
2018-03-31T05:53:49.065Z,26.67
2018-03-31T05:56:16.071Z,26.33
2018-03-31T05:58:43.072Z,26.40
2018-03-31T06:01:10.824Z,27.57
2018-03-31T06:03:37.862Z,27.10
2018-03-31T06:06:04.809Z,28.10
2018-03-31T06:08:31.776Z,26.30
2018-03-31T06:10:59.583Z,25.50
2018-03-31T06:13:26.590Z,25.03
2018-03-31T06:15:54.430Z,24.97
2018-03-31T06:18:21.430Z,24.10
2018-03-31T06:20:48.419Z,24.40
2018-03-31T06:23:15.410Z,23.80
2018-03-31T06:25:43.168Z,23.63
2018-03-31T06:28:10.938Z,24.67
2018-03-31T06:30:38.736Z,24.87
2018-03-31T06:33:06.457Z,23.50
2018-03-31T06:35:34.270Z,23.47
2018-03-31T06:38:01.251Z,22.53
2018-03-31T06:40:28.284Z,21.50
2018-03-31T06:42:55.264Z,22.07
2018-03-31T06:45:22.992Z,22.13
2018-03-31T06:47:49.972Z,21.63
2018-03-31T06:50:17.773Z,22.40
2018-03-31T06:52:44.810Z,20.60
2018-03-31T06:55:12.582Z,19.90
2018-03-31T06:57:39.600Z,19.93
2018-03-31T07:00:07.355Z,20.17
2018-03-31T07:02:34.403Z,19.47
2018-03-31T07:05:01.400Z,18.57
2018-03-31T07:07:28.439Z,17.50
2018-03-31T07:09:55.404Z,17.03
2018-03-31T07:12:22.396Z,16.80
2018-03-31T07:14:50.158Z,16.10
2018-03-31T07:17:17.943Z,15.10
2018-03-31T07:19:44.934Z,14.60
2018-03-31T07:22:12.709Z,14.30
2018-03-31T07:24:39.768Z,14.87
2018-03-31T07:27:06.721Z,15.10
2018-03-31T07:29:33.720Z,14.23
2018-03-31T07:32:00.732Z,15.50
2018-03-31T07:34:27.726Z,14.83
2018-03-31T07:36:54.711Z,14.80
2018-03-31T07:39:22.464Z,14.67
2018-03-31T07:41:49.491Z,15.00
2018-03-31T07:44:16.590Z,14.57
2018-03-31T07:46:43.636Z,15.63
2018-03-31T07:49:11.371Z,15.50
2018-03-31T07:51:38.379Z,15.67
2018-03-31T07:54:05.366Z,15.20
2018-03-31T07:56:32.616Z,15.70
2018-03-31T07:58:59.639Z,15.57
2018-03-31T08:01:26.643Z,14.87
2018-03-31T08:03:53.691Z,14.83
2018-03-31T08:06:21.444Z,15.83
2018-03-31T08:08:49.258Z,15.00
2018-03-31T08:11:16.264Z,15.37
2018-03-31T08:13:43.264Z,15.93
2018-03-31T08:16:10.296Z,14.57
2018-03-31T08:18:37.297Z,14.83
2018-03-31T08:21:05.116Z,15.33
2018-03-31T08:23:32.160Z,15.13
2018-03-31T08:25:59.173Z,15.73
2018-03-31T08:28:26.929Z,15.47
2018-03-31T08:30:54.692Z,14.93
2018-03-31T08:33:22.455Z,15.70
2018-03-31T08:35:50.220Z,13.90
2018-03-31T08:38:17.975Z,15.00
2018-03-31T08:40:45.740Z,14.17
2018-03-31T08:43:13.498Z,13.70
2018-03-31T08:45:40.496Z,14.70
2018-03-31T08:48:07.470Z,14.10
2018-03-31T08:50:34.459Z,13.93
2018-03-31T08:53:02.216Z,15.03
2018-03-31T08:55:29.992Z,15.43
2018-03-31T08:57:57.803Z,15.87
2018-03-31T09:00:24.808Z,16.17
2018-03-31T09:02:51.798Z,15.40
2018-03-31T09:05:18.835Z,16.10
2018-03-31T09:07:45.934Z,15.47
2018-03-31T09:10:13.703Z,16.63
2018-03-31T09:12:41.509Z,15.97
2018-03-31T09:15:09.224Z,15.87
2018-03-31T09:17:37.041Z,16.63
2018-03-31T09:20:04.022Z,15.47
2018-03-31T09:22:31.058Z,15.63
2018-03-31T09:24:58.036Z,16.23
2018-03-31T09:27:25.040Z,14.13
2018-03-31T09:29:52.013Z,15.20
2018-03-31T09:32:19.016Z,14.97
2018-03-31T09:34:45.996Z,15.60
2018-03-31T09:37:13.015Z,15.13
2018-03-31T09:39:40.033Z,15.87
2018-03-31T09:42:07.085Z,15.23
2018-03-31T09:44:34.083Z,14.27
2018-03-31T09:47:01.077Z,13.53
2018-03-31T09:49:28.076Z,14.30
2018-03-31T09:51:55.095Z,14.27
2018-03-31T09:54:22.178Z,14.43
2018-03-31T09:56:49.166Z,13.90
2018-03-31T09:59:16.173Z,12.60
2018-03-31T10:01:43.248Z,13.13
2018-03-31T10:04:10.992Z,13.23
2018-03-31T10:06:38.792Z,13.87
2018-03-31T10:09:05.799Z,16.83
2018-03-31T10:11:32.812Z,15.27
2018-03-31T10:13:59.811Z,18.73
2018-03-31T10:16:27.639Z,19.27
2018-03-31T10:18:54.613Z,19.70
2018-03-31T10:21:21.613Z,19.30
2018-03-31T10:23:48.593Z,18.80
2018-03-31T10:26:15.707Z,18.00
2018-03-31T10:28:42.679Z,17.50
2018-03-31T10:31:09.690Z,17.10
2018-03-31T10:33:36.689Z,16.73
2018-03-31T10:36:03.815Z,19.30
2018-03-31T10:38:30.802Z,18.37
2018-03-31T10:40:58.543Z,17.50
2018-03-31T10:43:25.607Z,17.37
2018-03-31T10:45:52.617Z,16.63
2018-03-31T10:48:20.379Z,16.17
2018-03-31T10:50:47.425Z,16.30
2018-03-31T10:53:14.437Z,17.30
2018-03-31T10:55:41.420Z,17.27
2018-03-31T10:58:08.424Z,16.60
2018-03-31T11:00:36.176Z,16.10
2018-03-31T11:03:03.168Z,15.60
2018-03-31T11:05:30.158Z,15.00
2018-03-31T11:07:57.249Z,15.40
2018-03-31T11:10:24.240Z,16.33
2018-03-31T11:12:51.294Z,15.20
2018-03-31T11:15:18.237Z,14.43
2018-03-31T11:17:45.261Z,13.33
2018-03-31T11:20:12.254Z,14.73
2018-03-31T11:22:40.068Z,15.03
2018-03-31T11:25:07.060Z,15.90
2018-03-31T11:27:34.859Z,15.63
2018-03-31T11:30:01.853Z,16.17
2018-03-31T11:32:28.864Z,16.43
2018-03-31T11:34:55.864Z,15.33
2018-03-31T11:37:22.892Z,14.83
2018-03-31T11:39:49.905Z,15.97
2018-03-31T11:42:16.891Z,16.53
2018-03-31T11:44:43.896Z,15.97
2018-03-31T11:47:10.896Z,13.87
2018-03-31T11:49:38.062Z,14.17
2018-03-31T11:52:10.585Z,14.20
2018-03-31T11:54:37.770Z,14.40
2018-03-31T11:57:04.769Z,13.70
2018-03-31T12:00:11.913Z,13.90
2018-03-31T12:02:52.740Z,15.07
2018-03-31T12:05:20.840Z,15.27
2018-03-31T12:07:47.891Z,14.47
2018-03-31T12:10:14.924Z,14.60
2018-03-31T12:12:42.100Z,13.77
2018-03-31T12:15:09.121Z,13.33
2018-03-31T12:17:36.143Z,12.47
2018-03-31T12:20:03.184Z,13.80
2018-03-31T12:22:30.171Z,12.97
2018-03-31T12:25:04.478Z,13.60
2018-03-31T12:27:31.532Z,13.80
2018-03-31T12:30:05.769Z,14.27
2018-03-31T12:32:33.974Z,12.07
2018-03-31T12:35:01.927Z,11.90
2018-03-31T12:37:28.979Z,12.57
2018-03-31T12:39:56.773Z,13.47
2018-03-31T12:42:23.802Z,13.57
2018-03-31T12:44:51.553Z,13.20
2018-03-31T12:47:19.341Z,14.20
2018-03-31T12:49:46.330Z,14.97
2018-03-31T12:52:13.412Z,13.97
2018-03-31T12:54:40.388Z,15.50
2018-03-31T12:57:07.491Z,16.53
2018-03-31T12:59:34.484Z,15.97
2018-03-31T13:02:01.500Z,16.40
2018-03-31T13:04:29.312Z,17.27
2018-03-31T13:06:57.051Z,14.83
2018-03-31T13:09:24.814Z,17.63
2018-03-31T13:11:52.544Z,15.07
2018-03-31T13:14:19.549Z,17.23
2018-03-31T13:16:46.528Z,17.70
2018-03-31T13:19:13.520Z,17.73
2018-03-31T13:21:41.380Z,14.50
2018-03-31T13:24:09.169Z,15.63
2018-03-31T13:26:36.161Z,20.93
2018-03-31T13:29:03.163Z,22.67
2018-03-31T13:31:30.252Z,23.00
2018-03-31T13:33:57.299Z,24.27
2018-03-31T13:36:24.348Z,24.20
2018-03-31T13:38:51.460Z,25.27
2018-03-31T13:41:18.494Z,24.33
2018-03-31T13:43:45.650Z,23.40
2018-03-31T13:46:12.654Z,22.07
2018-03-31T13:48:39.688Z,21.63
2018-03-31T13:51:06.685Z,21.47
2018-03-31T13:53:33.707Z,24.07
2018-03-31T13:56:00.730Z,24.33
2018-03-31T13:58:27.742Z,25.03
2018-03-31T14:00:54.817Z,22.53
2018-03-31T14:03:21.793Z,24.20
2018-03-31T14:05:48.796Z,24.07
2018-03-31T14:08:15.814Z,25.03
2018-03-31T14:10:42.824Z,24.30
2018-03-31T14:13:09.933Z,22.53
2018-03-31T14:15:36.972Z,23.40
2018-03-31T14:18:03.960Z,22.57
2018-03-31T14:20:30.984Z,23.03
2018-03-31T14:22:58.102Z,23.57
2018-03-31T14:25:25.092Z,22.80
2018-03-31T14:27:52.095Z,22.87
2018-03-31T14:30:19.115Z,22.93
2018-03-31T14:32:46.142Z,25.67
2018-03-31T14:35:13.150Z,24.73
2018-03-31T14:37:40.146Z,25.37
2018-03-31T14:40:07.126Z,23.30
2018-03-31T14:42:34.224Z,24.17
2018-03-31T14:45:01.198Z,24.50
2018-03-31T14:47:29.004Z,24.20
2018-03-31T14:49:56.005Z,23.40
2018-03-31T14:52:23.029Z,23.77
2018-03-31T14:54:50.045Z,25.27
2018-03-31T14:57:17.054Z,25.50
2018-03-31T14:59:44.083Z,25.93
2018-03-31T15:02:11.080Z,24.87
2018-03-31T15:04:38.078Z,27.13
2018-03-31T15:07:05.128Z,28.50
2018-03-31T15:09:32.235Z,25.87
2018-03-31T15:12:00.896Z,26.27
2018-03-31T15:14:28.634Z,27.00
2018-03-31T15:16:55.635Z,27.43
2018-03-31T15:19:22.623Z,25.97
2018-03-31T15:21:49.651Z,27.67
2018-03-31T15:24:16.632Z,26.37
2018-03-31T15:26:44.420Z,27.03
2018-03-31T15:29:11.436Z,26.80
2018-03-31T15:31:38.424Z,26.50
2018-03-31T15:34:05.410Z,26.20
2018-03-31T15:36:32.409Z,26.40
2018-03-31T15:38:59.532Z,26.13
2018-03-31T15:41:26.656Z,26.17
2018-03-31T15:43:53.698Z,26.77
2018-03-31T15:46:20.700Z,27.13
2018-03-31T15:48:47.702Z,27.17
2018-03-31T15:51:14.731Z,25.80
2018-03-31T15:53:41.753Z,27.27
2018-03-31T15:56:08.743Z,29.87
2018-03-31T15:58:35.735Z,31.47
2018-03-31T16:01:02.756Z,29.60
2018-03-31T16:03:29.820Z,29.20
2018-03-31T16:05:56.816Z,30.37
2018-03-31T16:08:23.917Z,28.83
2018-03-31T16:10:51.749Z,29.27
2018-03-31T16:13:18.725Z,34.13
2018-03-31T16:15:46.547Z,35.63
2018-03-31T16:18:13.553Z,35.17
2018-03-31T16:20:40.556Z,34.57
2018-03-31T16:23:07.589Z,35.30
2018-03-31T16:25:34.577Z,32.33
2018-03-31T16:28:02.345Z,31.57
2018-03-31T16:30:30.229Z,33.40
2018-03-31T16:32:57.262Z,29.70
2018-03-31T16:35:25.067Z,31.00
2018-03-31T16:37:52.163Z,30.73
2018-03-31T16:40:19.980Z,31.17
2018-03-31T16:42:47.299Z,31.67
2018-03-31T16:45:15.043Z,30.90
2018-03-31T16:47:42.120Z,30.23
2018-03-31T16:50:09.146Z,28.83
2018-03-31T16:52:36.918Z,27.90
2018-03-31T16:55:04.703Z,27.80
2018-03-31T16:57:31.717Z,27.33
2018-03-31T16:59:59.537Z,28.40
2018-03-31T17:02:26.545Z,27.20
2018-03-31T17:04:54.307Z,27.73
2018-03-31T17:07:22.084Z,27.43
2018-03-31T17:09:49.602Z,28.50
2018-03-31T17:12:16.592Z,27.60
2018-03-31T17:14:43.594Z,26.60
2018-03-31T17:17:10.598Z,26.70
2018-03-31T17:19:37.669Z,28.20
2018-03-31T17:22:04.679Z,27.97
2018-03-31T17:24:32.310Z,28.77
2018-03-31T17:26:59.312Z,29.33
2018-03-31T17:29:26.306Z,32.50
2018-03-31T17:31:53.302Z,34.80
2018-03-31T17:34:20.338Z,33.90
2018-03-31T17:36:47.358Z,37.23
2018-03-31T17:39:14.336Z,38.87
2018-03-31T17:41:41.351Z,36.67
2018-03-31T17:44:09.905Z,37.00
2018-03-31T17:46:36.914Z,43.85
2018-03-31T17:49:04.041Z,41.70
2018-03-31T17:51:31.825Z,38.73
2018-03-31T17:53:58.864Z,43.87
2018-03-31T17:56:25.892Z,40.10
2018-03-31T17:58:53.714Z,38.43
2018-03-31T18:01:20.724Z,37.87
2018-03-31T18:03:47.770Z,39.37
2018-03-31T18:06:14.810Z,38.27
2018-03-31T18:08:41.789Z,38.20
2018-03-31T18:11:08.827Z,36.33
2018-03-31T18:13:35.838Z,34.00
2018-03-31T18:16:03.618Z,38.03
2018-03-31T18:18:31.391Z,37.30
2018-03-31T18:20:58.401Z,39.23
2018-03-31T18:23:25.386Z,36.43
2018-03-31T18:25:52.396Z,36.73
2018-03-31T18:28:19.403Z,37.40
2018-03-31T18:30:46.406Z,36.03
2018-03-31T18:33:13.491Z,34.13
2018-03-31T18:35:40.484Z,36.27
2018-03-31T18:38:07.551Z,36.23
2018-03-31T18:40:35.326Z,35.93
2018-03-31T18:43:03.099Z,36.83
2018-03-31T18:45:30.159Z,36.27
2018-03-31T18:47:57.151Z,34.87
2018-03-31T18:50:24.145Z,36.20
2018-03-31T18:52:51.198Z,35.13
2018-03-31T18:55:18.292Z,37.83
2018-03-31T18:57:45.306Z,36.50
2018-03-31T19:00:12.341Z,32.80
2018-03-31T19:02:39.403Z,32.23
2018-03-31T19:05:06.429Z,33.40
2018-03-31T19:07:33.425Z,36.43
2018-03-31T19:10:00.476Z,39.57
2018-03-31T19:12:27.473Z,36.07
2018-03-31T19:14:54.477Z,39.00
2018-03-31T19:17:21.474Z,35.27
2018-03-31T19:19:48.484Z,32.50
2018-03-31T19:22:16.307Z,32.57
2018-03-31T19:24:49.124Z,34.87
2018-03-31T19:27:16.092Z,35.70
2018-03-31T19:29:44.012Z,36.20
2018-03-31T19:32:11.233Z,34.40
2018-03-31T19:34:38.255Z,31.70
2018-03-31T19:37:06.023Z,29.57
2018-03-31T19:39:39.467Z,23.87
2018-03-31T19:42:06.441Z,30.37
2018-03-31T19:44:33.445Z,29.53
2018-03-31T19:47:00.450Z,31.60
2018-03-31T19:49:27.473Z,32.43
2018-03-31T19:51:54.592Z,35.57
2018-03-31T19:54:21.627Z,33.70
2018-03-31T19:56:48.648Z,33.53
2018-03-31T19:59:16.445Z,32.87
2018-03-31T20:01:43.450Z,32.07
2018-03-31T20:04:11.725Z,32.40
2018-03-31T20:06:39.533Z,32.97
2018-03-31T20:09:06.500Z,32.47
2018-03-31T20:11:33.491Z,32.93
2018-03-31T20:14:01.300Z,30.50
2018-03-31T20:16:28.305Z,30.70
2018-03-31T20:18:55.295Z,29.23
2018-03-31T20:21:22.306Z,29.57
2018-03-31T20:23:50.092Z,27.03
2018-03-31T20:26:17.089Z,26.10
2018-03-31T20:28:44.155Z,27.93
2018-03-31T20:31:11.100Z,25.90
2018-03-31T20:33:38.851Z,27.23
2018-03-31T20:36:05.905Z,26.97
2018-03-31T20:38:33.004Z,28.17
2018-03-31T20:40:59.989Z,26.07
2018-03-31T20:43:27.018Z,27.63
2018-03-31T20:45:54.023Z,28.30
2018-03-31T20:48:21.023Z,25.70
2018-03-31T20:50:47.992Z,27.03
2018-03-31T20:53:14.999Z,28.70
2018-03-31T20:55:42.008Z,28.63
2018-03-31T20:58:09.062Z,27.77
2018-03-31T21:00:36.072Z,27.80
2018-03-31T21:03:03.200Z,28.93
2018-03-31T21:05:30.190Z,27.87
2018-03-31T21:07:57.990Z,28.90
2018-03-31T21:10:24.978Z,24.97
2018-03-31T21:12:51.981Z,24.00
2018-03-31T21:15:18.997Z,24.17
2018-03-31T21:17:46.741Z,23.60
2018-03-31T21:20:13.805Z,24.07
2018-03-31T21:22:41.564Z,25.00
2018-03-31T21:25:09.346Z,24.10
2018-03-31T21:27:37.142Z,27.93
2018-03-31T21:30:04.177Z,30.17
2018-03-31T21:32:31.180Z,28.90
2018-03-31T21:34:58.250Z,31.20
2018-03-31T21:37:26.037Z,29.97
2018-03-31T21:39:53.053Z,29.53
2018-03-31T21:42:20.866Z,24.93
2018-03-31T21:44:47.849Z,20.10
2018-03-31T21:47:14.889Z,19.20
2018-03-31T21:49:41.896Z,19.87
2018-03-31T21:52:08.953Z,18.67
2018-03-31T21:54:35.939Z,17.83
2018-03-31T21:57:02.962Z,20.27
2018-03-31T21:59:29.932Z,20.73
2018-03-31T22:01:56.959Z,21.87
2018-03-31T22:04:24.029Z,23.53
2018-03-31T22:06:51.039Z,22.30
2018-03-31T22:09:18.030Z,25.10
2018-03-31T22:11:45.030Z,27.00
2018-03-31T22:14:18.072Z,27.27
2018-03-31T22:16:45.071Z,28.43
2018-03-31T22:19:12.099Z,28.20
2018-03-31T22:21:39.149Z,32.15
2018-03-31T22:24:06.150Z,27.67
2018-03-31T22:26:33.168Z,27.47
2018-03-31T22:29:00.296Z,23.17
2018-03-31T22:31:27.277Z,26.80
2018-03-31T22:33:54.361Z,26.67
2018-03-31T22:36:22.154Z,27.87
2018-03-31T22:38:49.181Z,28.00
2018-03-31T22:41:16.986Z,30.37
2018-03-31T22:43:44.033Z,26.90
2018-03-31T22:46:11.082Z,28.47
2018-03-31T22:48:38.083Z,29.63
2018-03-31T22:51:05.887Z,31.17
2018-03-31T22:53:32.896Z,30.57
2018-03-31T22:55:59.892Z,33.90
2018-03-31T22:58:27.698Z,31.20
2018-03-31T23:00:55.509Z,30.50
2018-03-31T23:03:22.515Z,30.10
2018-03-31T23:05:50.306Z,29.93
2018-03-31T23:08:19.152Z,39.80
2018-03-31T23:10:46.261Z,30.87
2018-03-31T23:13:13.261Z,28.30
2018-03-31T23:15:41.065Z,30.10
2018-03-31T23:18:08.064Z,31.03
2018-03-31T23:20:35.086Z,31.10
2018-03-31T23:23:02.067Z,29.27
2018-03-31T23:25:29.871Z,30.97
2018-03-31T23:27:56.881Z,29.63
2018-03-31T23:30:24.703Z,31.50
2018-03-31T23:32:51.675Z,29.73
2018-03-31T23:35:18.768Z,30.27
2018-03-31T23:37:45.778Z,30.63
2018-03-31T23:40:13.567Z,30.17
2018-03-31T23:42:40.567Z,32.37
2018-03-31T23:45:07.646Z,31.13
2018-03-31T23:47:34.675Z,31.33
2018-03-31T23:50:01.665Z,32.80
2018-03-31T23:52:28.724Z,31.70
2018-03-31T23:54:55.777Z,32.67
2018-03-31T23:57:22.891Z,33.03
2018-03-31T23:59:49.893Z,31.77
